sensor_id;sensor_type;location;lat;lon;timestamp;temperature;humidity
79571;DHT22;69034;49.444;7.758;2023-05-23T00:01:27;22.00;48.70
79571;DHT22;69034;49.444;7.758;2023-05-23T00:05:27;22.00;48.80
79571;DHT22;69034;49.444;7.758;2023-05-23T00:09:28;22.00;48.90
79571;DHT22;69034;49.444;7.758;2023-05-23T00:13:29;21.90;48.80
79571;DHT22;69034;49.444;7.758;2023-05-23T00:17:32;21.80;48.80
79571;DHT22;69034;49.444;7.758;2023-05-23T00:21:33;21.70;49.00
79571;DHT22;69034;49.444;7.758;2023-05-23T00:25:34;21.60;49.10
79571;DHT22;69034;49.444;7.758;2023-05-23T00:29:35;21.50;49.20
79571;DHT22;69034;49.444;7.758;2023-05-23T00:33:36;21.40;49.30
79571;DHT22;69034;49.444;7.758;2023-05-23T00:37:36;21.30;49.30
79571;DHT22;69034;49.444;7.758;2023-05-23T00:41:37;21.20;49.30
79571;DHT22;69034;49.444;7.758;2023-05-23T00:45:38;21.10;49.40
79571;DHT22;69034;49.444;7.758;2023-05-23T00:49:39;21.10;49.50
79571;DHT22;69034;49.444;7.758;2023-05-23T00:53:40;21.00;49.50
79571;DHT22;69034;49.444;7.758;2023-05-23T00:57:41;20.90;49.60
79571;DHT22;69034;49.444;7.758;2023-05-23T01:01:43;20.90;49.50
79571;DHT22;69034;49.444;7.758;2023-05-23T01:05:47;20.80;49.60
79571;DHT22;69034;49.444;7.758;2023-05-23T01:09:48;20.80;49.60
79571;DHT22;69034;49.444;7.758;2023-05-23T01:14:04;20.80;49.70
79571;DHT22;69034;49.444;7.758;2023-05-23T01:18:15;20.80;49.90
79571;DHT22;69034;49.444;7.758;2023-05-23T01:22:34;20.70;50.10
79571;DHT22;69034;49.444;7.758;2023-05-23T01:27:02;20.70;50.00
79571;DHT22;69034;49.444;7.758;2023-05-23T01:31:02;20.70;50.10
79571;DHT22;69034;49.444;7.758;2023-05-23T01:35:04;20.90;50.10
79571;DHT22;69034;49.444;7.758;2023-05-23T01:39:05;21.00;50.20
79571;DHT22;69034;49.444;7.758;2023-05-23T01:43:06;21.10;50.00
79571;DHT22;69034;49.444;7.758;2023-05-23T01:47:08;21.20;49.90
79571;DHT22;69034;49.444;7.758;2023-05-23T01:51:10;21.30;50.00
79571;DHT22;69034;49.444;7.758;2023-05-23T01:55:11;21.40;50.10
79571;DHT22;69034;49.444;7.758;2023-05-23T01:59:15;21.40;50.10
79571;DHT22;69034;49.444;7.758;2023-05-23T02:03:15;21.50;50.00
79571;DHT22;69034;49.444;7.758;2023-05-23T02:07:16;21.50;49.90
79571;DHT22;69034;49.444;7.758;2023-05-23T02:11:18;21.50;49.80
79571;DHT22;69034;49.444;7.758;2023-05-23T02:15:18;21.50;49.80
79571;DHT22;69034;49.444;7.758;2023-05-23T02:19:19;21.50;49.80
79571;DHT22;69034;49.444;7.758;2023-05-23T02:23:20;21.40;49.80
79571;DHT22;69034;49.444;7.758;2023-05-23T02:27:20;21.40;49.80
79571;DHT22;69034;49.444;7.758;2023-05-23T02:31:21;21.30;49.80
79571;DHT22;69034;49.444;7.758;2023-05-23T02:35:22;21.20;49.80
79571;DHT22;69034;49.444;7.758;2023-05-23T02:39:23;21.10;49.70
79571;DHT22;69034;49.444;7.758;2023-05-23T02:43:24;21.10;50.00
79571;DHT22;69034;49.444;7.758;2023-05-23T02:47:24;21.00;50.30
79571;DHT22;69034;49.444;7.758;2023-05-23T02:51:25;20.90;50.50
79571;DHT22;69034;49.444;7.758;2023-05-23T02:55:26;20.80;50.70
79571;DHT22;69034;49.444;7.758;2023-05-23T02:59:27;20.70;50.80
79571;DHT22;69034;49.444;7.758;2023-05-23T03:03:27;20.70;51.10
79571;DHT22;69034;49.444;7.758;2023-05-23T03:07:28;20.60;51.30
79571;DHT22;69034;49.444;7.758;2023-05-23T03:11:29;20.50;51.40
79571;DHT22;69034;49.444;7.758;2023-05-23T03:15:30;20.40;51.40
79571;DHT22;69034;49.444;7.758;2023-05-23T03:19:31;20.40;51.50
79571;DHT22;69034;49.444;7.758;2023-05-23T03:23:31;20.30;51.50
79571;DHT22;69034;49.444;7.758;2023-05-23T03:27:32;20.30;51.80
79571;DHT22;69034;49.444;7.758;2023-05-23T03:31:32;20.20;52.00
79571;DHT22;69034;49.444;7.758;2023-05-23T03:35:33;20.20;52.10
79571;DHT22;69034;49.444;7.758;2023-05-23T03:39:34;20.10;52.40
79571;DHT22;69034;49.444;7.758;2023-05-23T03:43:34;20.20;52.80
79571;DHT22;69034;49.444;7.758;2023-05-23T03:47:35;20.20;52.90
79571;DHT22;69034;49.444;7.758;2023-05-23T03:51:36;20.30;52.80
79571;DHT22;69034;49.444;7.758;2023-05-23T03:55:38;20.40;52.70
79571;DHT22;69034;49.444;7.758;2023-05-23T03:59:40;20.50;52.60
79571;DHT22;69034;49.444;7.758;2023-05-23T04:03:41;20.50;52.50
79571;DHT22;69034;49.444;7.758;2023-05-23T04:07:42;20.50;52.30
79571;DHT22;69034;49.444;7.758;2023-05-23T04:11:43;20.60;52.30
79571;DHT22;69034;49.444;7.758;2023-05-23T04:15:44;20.60;52.20
79571;DHT22;69034;49.444;7.758;2023-05-23T04:19:45;20.60;52.10
79571;DHT22;69034;49.444;7.758;2023-05-23T04:23:45;20.60;52.00
79571;DHT22;69034;49.444;7.758;2023-05-23T04:27:46;20.60;51.80
79571;DHT22;69034;49.444;7.758;2023-05-23T04:31:48;20.60;51.60
79571;DHT22;69034;49.444;7.758;2023-05-23T04:35:50;20.70;51.50
79571;DHT22;69034;49.444;7.758;2023-05-23T04:39:51;20.60;51.50
79571;DHT22;69034;49.444;7.758;2023-05-23T04:43:52;20.60;51.50
79571;DHT22;69034;49.444;7.758;2023-05-23T04:47:53;20.60;51.50
79571;DHT22;69034;49.444;7.758;2023-05-23T04:51:54;20.70;51.50
79571;DHT22;69034;49.444;7.758;2023-05-23T04:55:55;20.80;51.40
79571;DHT22;69034;49.444;7.758;2023-05-23T04:59:57;20.80;51.40
79571;DHT22;69034;49.444;7.758;2023-05-23T05:03:57;20.90;51.20
79571;DHT22;69034;49.444;7.758;2023-05-23T05:07:58;21.00;51.10
79571;DHT22;69034;49.444;7.758;2023-05-23T05:11:59;21.10;51.00
79571;DHT22;69034;49.444;7.758;2023-05-23T05:16:00;21.10;51.00
79571;DHT22;69034;49.444;7.758;2023-05-23T05:20:01;21.10;50.90
79571;DHT22;69034;49.444;7.758;2023-05-23T05:24:05;21.10;50.80
79571;DHT22;69034;49.444;7.758;2023-05-23T05:28:08;21.10;50.90
79571;DHT22;69034;49.444;7.758;2023-05-23T05:32:09;21.10;50.90
79571;DHT22;69034;49.444;7.758;2023-05-23T05:36:10;21.10;50.90
79571;DHT22;69034;49.444;7.758;2023-05-23T05:40:11;21.10;50.90
79571;DHT22;69034;49.444;7.758;2023-05-23T05:44:12;21.20;50.70
79571;DHT22;69034;49.444;7.758;2023-05-23T05:48:13;21.30;50.60
79571;DHT22;69034;49.444;7.758;2023-05-23T05:52:15;21.40;50.50
79571;DHT22;69034;49.444;7.758;2023-05-23T05:56:15;21.50;50.40
79571;DHT22;69034;49.444;7.758;2023-05-23T06:00:16;21.70;50.20
79571;DHT22;69034;49.444;7.758;2023-05-23T06:04:19;21.90;50.10
79571;DHT22;69034;49.444;7.758;2023-05-23T06:08:19;22.10;50.00
79571;DHT22;69034;49.444;7.758;2023-05-23T06:12:20;22.40;50.80
79571;DHT22;69034;49.444;7.758;2023-05-23T06:16:21;22.90;50.50
79571;DHT22;69034;49.444;7.758;2023-05-23T06:20:22;23.20;50.10
79571;DHT22;69034;49.444;7.758;2023-05-23T06:24:22;23.40;49.70
79571;DHT22;69034;49.444;7.758;2023-05-23T06:28:24;23.60;49.60
79571;DHT22;69034;49.444;7.758;2023-05-23T06:32:25;23.70;49.50
79571;DHT22;69034;49.444;7.758;2023-05-23T06:36:26;24.00;48.80
79571;DHT22;69034;49.444;7.758;2023-05-23T06:40:26;24.20;48.20
79571;DHT22;69034;49.444;7.758;2023-05-23T06:44:27;24.30;48.10
79571;DHT22;69034;49.444;7.758;2023-05-23T06:48:28;24.30;47.90
79571;DHT22;69034;49.444;7.758;2023-05-23T06:52:28;24.30;47.40
79571;DHT22;69034;49.444;7.758;2023-05-23T06:56:29;24.30;47.50
79571;DHT22;69034;49.444;7.758;2023-05-23T07:00:30;24.30;47.50
79571;DHT22;69034;49.444;7.758;2023-05-23T07:04:31;24.20;46.90
79571;DHT22;69034;49.444;7.758;2023-05-23T07:08:32;24.10;47.30
79571;DHT22;69034;49.444;7.758;2023-05-23T07:12:33;24.10;47.10
79571;DHT22;69034;49.444;7.758;2023-05-23T07:16:33;23.90;46.30
79571;DHT22;69034;49.444;7.758;2023-05-23T07:20:34;24.00;46.30
79571;DHT22;69034;49.444;7.758;2023-05-23T07:24:35;24.10;46.10
79571;DHT22;69034;49.444;7.758;2023-05-23T07:28:36;24.20;45.60
79571;DHT22;69034;49.444;7.758;2023-05-23T07:32:37;24.10;45.20
79571;DHT22;69034;49.444;7.758;2023-05-23T07:36:37;24.20;45.00
79571;DHT22;69034;49.444;7.758;2023-05-23T07:40:40;24.10;45.10
79571;DHT22;69034;49.444;7.758;2023-05-23T07:44:41;24.20;45.10
79571;DHT22;69034;49.444;7.758;2023-05-23T07:48:41;24.20;45.20
79571;DHT22;69034;49.444;7.758;2023-05-23T07:52:43;24.30;44.90
79571;DHT22;69034;49.444;7.758;2023-05-23T07:56:43;24.50;44.80
79571;DHT22;69034;49.444;7.758;2023-05-23T08:00:45;24.60;44.90
79571;DHT22;69034;49.444;7.758;2023-05-23T08:04:47;24.70;44.80
79571;DHT22;69034;49.444;7.758;2023-05-23T08:08:48;24.90;44.70
79571;DHT22;69034;49.444;7.758;2023-05-23T08:12:48;25.10;44.60
79571;DHT22;69034;49.444;7.758;2023-05-23T08:16:49;25.10;44.50
79571;DHT22;69034;49.444;7.758;2023-05-23T08:20:50;25.10;44.50
79571;DHT22;69034;49.444;7.758;2023-05-23T08:24:51;25.00;44.50
79571;DHT22;69034;49.444;7.758;2023-05-23T08:28:52;25.00;44.10
79571;DHT22;69034;49.444;7.758;2023-05-23T08:32:54;25.00;43.90
79571;DHT22;69034;49.444;7.758;2023-05-23T08:36:55;24.90;43.90
79571;DHT22;69034;49.444;7.758;2023-05-23T08:40:55;24.90;43.90
79571;DHT22;69034;49.444;7.758;2023-05-23T08:44:59;24.90;44.00
79571;DHT22;69034;49.444;7.758;2023-05-23T08:49:01;25.00;43.80
79571;DHT22;69034;49.444;7.758;2023-05-23T08:53:02;25.60;43.10
79571;DHT22;69034;49.444;7.758;2023-05-23T08:57:04;26.20;42.40
79571;DHT22;69034;49.444;7.758;2023-05-23T09:01:05;26.60;42.00
79571;DHT22;69034;49.444;7.758;2023-05-23T09:05:06;27.00;41.60
79571;DHT22;69034;49.444;7.758;2023-05-23T09:09:09;27.80;40.50
79571;DHT22;69034;49.444;7.758;2023-05-23T09:13:09;28.30;39.80
79571;DHT22;69034;49.444;7.758;2023-05-23T09:17:14;28.50;39.40
79571;DHT22;69034;49.444;7.758;2023-05-23T09:21:15;28.40;39.20
79571;DHT22;69034;49.444;7.758;2023-05-23T09:25:16;28.00;39.60
79571;DHT22;69034;49.444;7.758;2023-05-23T09:29:19;27.90;39.70
79571;DHT22;69034;49.444;7.758;2023-05-23T09:33:20;27.80;39.60
79571;DHT22;69034;49.444;7.758;2023-05-23T09:37:31;27.90;39.60
79571;DHT22;69034;49.444;7.758;2023-05-23T09:41:34;27.90;39.50
79571;DHT22;69034;49.444;7.758;2023-05-23T09:45:34;27.60;39.40
79571;DHT22;69034;49.444;7.758;2023-05-23T09:49:38;27.40;39.50
79571;DHT22;69034;49.444;7.758;2023-05-23T09:53:39;27.50;38.80
79571;DHT22;69034;49.444;7.758;2023-05-23T09:57:41;27.40;38.90
79571;DHT22;69034;49.444;7.758;2023-05-23T10:01:43;27.40;38.80
79571;DHT22;69034;49.444;7.758;2023-05-23T10:05:48;27.60;38.50
79571;DHT22;69034;49.444;7.758;2023-05-23T10:09:58;27.70;38.40
79571;DHT22;69034;49.444;7.758;2023-05-23T10:18:08;27.70;38.00
79571;DHT22;69034;49.444;7.758;2023-05-23T10:22:11;27.90;37.70
79571;DHT22;69034;49.444;7.758;2023-05-23T10:26:14;28.00;37.60
79571;DHT22;69034;49.444;7.758;2023-05-23T10:30:15;28.10;37.70
79571;DHT22;69034;49.444;7.758;2023-05-23T10:43:19;27.90;37.30
79571;DHT22;69034;49.444;7.758;2023-05-23T10:47:28;28.10;37.50
79571;DHT22;69034;49.444;7.758;2023-05-23T10:51:37;28.40;36.90
79571;DHT22;69034;49.444;7.758;2023-05-23T10:55:39;28.50;36.50
79571;DHT22;69034;49.444;7.758;2023-05-23T10:59:40;28.20;36.80
79571;DHT22;69034;49.444;7.758;2023-05-23T11:07:45;27.60;37.90
79571;DHT22;69034;49.444;7.758;2023-05-23T11:12:04;27.70;38.00
79571;DHT22;69034;49.444;7.758;2023-05-23T11:20:25;28.80;37.00
79571;DHT22;69034;49.444;7.758;2023-05-23T11:24:51;29.30;36.40
79571;DHT22;69034;49.444;7.758;2023-05-23T11:28:56;29.50;36.00
79571;DHT22;69034;49.444;7.758;2023-05-23T11:32:57;29.50;36.10
79571;DHT22;69034;49.444;7.758;2023-05-23T11:36:59;29.40;36.40
79571;DHT22;69034;49.444;7.758;2023-05-23T11:40:59;29.10;36.60
79571;DHT22;69034;49.444;7.758;2023-05-23T11:45:00;29.00;36.60
79571;DHT22;69034;49.444;7.758;2023-05-23T11:49:01;29.10;35.80
79571;DHT22;69034;49.444;7.758;2023-05-23T11:53:02;29.20;35.70
79571;DHT22;69034;49.444;7.758;2023-05-23T11:57:02;29.10;35.50
79571;DHT22;69034;49.444;7.758;2023-05-23T12:01:08;29.20;35.80
79571;DHT22;69034;49.444;7.758;2023-05-23T12:05:10;29.30;35.50
79571;DHT22;69034;49.444;7.758;2023-05-23T12:09:13;29.80;35.00
79571;DHT22;69034;49.444;7.758;2023-05-23T12:13:14;30.30;34.70
79571;DHT22;69034;49.444;7.758;2023-05-23T12:17:14;30.50;34.30
79571;DHT22;69034;49.444;7.758;2023-05-23T12:21:17;30.80;34.20
79571;DHT22;69034;49.444;7.758;2023-05-23T12:25:17;30.80;34.10
79571;DHT22;69034;49.444;7.758;2023-05-23T12:29:32;30.60;34.00
79571;DHT22;69034;49.444;7.758;2023-05-23T12:33:37;30.70;34.10
79571;DHT22;69034;49.444;7.758;2023-05-23T12:37:39;30.80;33.70
79571;DHT22;69034;49.444;7.758;2023-05-23T12:41:41;31.30;33.20
79571;DHT22;69034;49.444;7.758;2023-05-23T12:45:42;31.40;32.40
79571;DHT22;69034;49.444;7.758;2023-05-23T12:49:43;31.20;33.00
79571;DHT22;69034;49.444;7.758;2023-05-23T12:53:46;31.10;33.00
79571;DHT22;69034;49.444;7.758;2023-05-23T12:57:47;30.60;33.00
79571;DHT22;69034;49.444;7.758;2023-05-23T13:01:47;30.00;33.70
79571;DHT22;69034;49.444;7.758;2023-05-23T13:05:48;29.80;34.00
79571;DHT22;69034;49.444;7.758;2023-05-23T13:09:49;30.40;33.40
79571;DHT22;69034;49.444;7.758;2023-05-23T13:13:50;30.50;33.00
79571;DHT22;69034;49.444;7.758;2023-05-23T13:17:50;30.40;33.00
79571;DHT22;69034;49.444;7.758;2023-05-23T13:21:52;30.30;33.10
79571;DHT22;69034;49.444;7.758;2023-05-23T13:25:52;30.20;33.00
79571;DHT22;69034;49.444;7.758;2023-05-23T13:29:53;29.70;33.40
79571;DHT22;69034;49.444;7.758;2023-05-23T13:33:54;29.30;33.70
79571;DHT22;69034;49.444;7.758;2023-05-23T13:37:55;28.90;34.10
79571;DHT22;69034;49.444;7.758;2023-05-23T13:41:56;28.80;34.10
79571;DHT22;69034;49.444;7.758;2023-05-23T13:45:56;28.80;34.30
79571;DHT22;69034;49.444;7.758;2023-05-23T13:49:57;28.50;34.50
79571;DHT22;69034;49.444;7.758;2023-05-23T13:53:58;27.90;35.10
79571;DHT22;69034;49.444;7.758;2023-05-23T13:57:58;27.50;35.60
79571;DHT22;69034;49.444;7.758;2023-05-23T14:01:59;27.10;36.00
79571;DHT22;69034;49.444;7.758;2023-05-23T14:06:00;26.90;36.30
79571;DHT22;69034;49.444;7.758;2023-05-23T14:10:00;26.70;36.50
79571;DHT22;69034;49.444;7.758;2023-05-23T14:14:03;26.80;36.60
79571;DHT22;69034;49.444;7.758;2023-05-23T14:18:04;26.90;36.50
79571;DHT22;69034;49.444;7.758;2023-05-23T14:22:05;27.10;36.30
79571;DHT22;69034;49.444;7.758;2023-05-23T14:26:05;27.20;36.30
79571;DHT22;69034;49.444;7.758;2023-05-23T14:30:07;27.10;36.40
79571;DHT22;69034;49.444;7.758;2023-05-23T14:34:08;27.00;36.60
79571;DHT22;69034;49.444;7.758;2023-05-23T14:38:09;27.10;36.60
79571;DHT22;69034;49.444;7.758;2023-05-23T14:42:09;27.20;36.60
79571;DHT22;69034;49.444;7.758;2023-05-23T14:46:10;27.40;36.40
79571;DHT22;69034;49.444;7.758;2023-05-23T14:50:11;27.70;36.00
79571;DHT22;69034;49.444;7.758;2023-05-23T14:54:12;28.20;35.60
79571;DHT22;69034;49.444;7.758;2023-05-23T14:58:13;28.50;35.20
79571;DHT22;69034;49.444;7.758;2023-05-23T15:02:13;28.60;35.10
79571;DHT22;69034;49.444;7.758;2023-05-23T15:06:14;28.40;35.10
79571;DHT22;69034;49.444;7.758;2023-05-23T15:10:14;28.10;35.40
79571;DHT22;69034;49.444;7.758;2023-05-23T15:14:15;28.00;35.50
79571;DHT22;69034;49.444;7.758;2023-05-23T15:18:16;27.80;35.80
79571;DHT22;69034;49.444;7.758;2023-05-23T15:22:17;27.60;35.80
79571;DHT22;69034;49.444;7.758;2023-05-23T15:26:17;27.40;35.90
79571;DHT22;69034;49.444;7.758;2023-05-23T15:30:18;27.10;36.30
79571;DHT22;69034;49.444;7.758;2023-05-23T15:34:19;26.90;36.70
79571;DHT22;69034;49.444;7.758;2023-05-23T15:38:20;26.80;36.70
79571;DHT22;69034;49.444;7.758;2023-05-23T15:42:21;26.80;36.80
79571;DHT22;69034;49.444;7.758;2023-05-23T15:46:21;27.00;36.70
79571;DHT22;69034;49.444;7.758;2023-05-23T15:50:22;27.20;36.60
79571;DHT22;69034;49.444;7.758;2023-05-23T15:54:23;27.30;36.50
79571;DHT22;69034;49.444;7.758;2023-05-23T15:58:23;27.30;36.30
79571;DHT22;69034;49.444;7.758;2023-05-23T16:02:24;27.20;36.40
79571;DHT22;69034;49.444;7.758;2023-05-23T16:06:25;27.00;36.50
79571;DHT22;69034;49.444;7.758;2023-05-23T16:10:27;26.70;36.60
79571;DHT22;69034;49.444;7.758;2023-05-23T16:14:29;26.30;37.20
79571;DHT22;69034;49.444;7.758;2023-05-23T16:18:30;26.20;37.40
79571;DHT22;69034;49.444;7.758;2023-05-23T16:22:34;26.10;37.60
79571;DHT22;69034;49.444;7.758;2023-05-23T16:26:34;26.00;37.70
79571;DHT22;69034;49.444;7.758;2023-05-23T16:30:35;25.90;37.70
79571;DHT22;69034;49.444;7.758;2023-05-23T16:34:36;25.90;37.70
79571;DHT22;69034;49.444;7.758;2023-05-23T16:38:36;26.30;37.30
79571;DHT22;69034;49.444;7.758;2023-05-23T16:42:37;26.60;37.00
79571;DHT22;69034;49.444;7.758;2023-05-23T16:46:38;28.10;35.40
79571;DHT22;69034;49.444;7.758;2023-05-23T16:50:38;28.50;34.70
79571;DHT22;69034;49.444;7.758;2023-05-23T16:54:39;28.10;34.90
79571;DHT22;69034;49.444;7.758;2023-05-23T16:58:40;27.80;35.00
79571;DHT22;69034;49.444;7.758;2023-05-23T17:02:41;28.30;34.50
79571;DHT22;69034;49.444;7.758;2023-05-23T17:06:41;29.50;33.00
79571;DHT22;69034;49.444;7.758;2023-05-23T17:10:42;29.10;33.40
79571;DHT22;69034;49.444;7.758;2023-05-23T17:14:43;28.90;33.50
79571;DHT22;69034;49.444;7.758;2023-05-23T17:18:44;28.40;33.70
79571;DHT22;69034;49.444;7.758;2023-05-23T17:22:44;28.20;33.90
79571;DHT22;69034;49.444;7.758;2023-05-23T17:26:45;28.70;33.30
79571;DHT22;69034;49.444;7.758;2023-05-23T17:30:46;28.30;32.90
79571;DHT22;69034;49.444;7.758;2023-05-23T17:34:47;27.40;33.30
79571;DHT22;69034;49.444;7.758;2023-05-23T17:38:47;26.80;34.20
79571;DHT22;69034;49.444;7.758;2023-05-23T17:42:48;27.50;33.60
79571;DHT22;69034;49.444;7.758;2023-05-23T17:46:49;28.20;33.10
79571;DHT22;69034;49.444;7.758;2023-05-23T17:50:49;28.60;32.90
79571;DHT22;69034;49.444;7.758;2023-05-23T17:54:50;28.80;32.70
79571;DHT22;69034;49.444;7.758;2023-05-23T17:58:51;28.80;32.70
79571;DHT22;69034;49.444;7.758;2023-05-23T18:02:51;28.50;32.90
79571;DHT22;69034;49.444;7.758;2023-05-23T18:06:52;28.40;33.10
79571;DHT22;69034;49.444;7.758;2023-05-23T18:10:53;28.20;33.00
79571;DHT22;69034;49.444;7.758;2023-05-23T18:14:53;27.90;33.20
79571;DHT22;69034;49.444;7.758;2023-05-23T18:18:54;27.60;33.30
79571;DHT22;69034;49.444;7.758;2023-05-23T18:22:56;27.20;33.20
79571;DHT22;69034;49.444;7.758;2023-05-23T18:26:57;26.80;33.50
79571;DHT22;69034;49.444;7.758;2023-05-23T18:30:57;26.40;33.80
79571;DHT22;69034;49.444;7.758;2023-05-23T18:34:58;25.90;34.20
79571;DHT22;69034;49.444;7.758;2023-05-23T18:38:59;25.40;34.70
79571;DHT22;69034;49.444;7.758;2023-05-23T18:42:59;24.90;35.10
79571;DHT22;69034;49.444;7.758;2023-05-23T18:47:00;24.40;35.70
79571;DHT22;69034;49.444;7.758;2023-05-23T18:51:01;24.00;36.40
79571;DHT22;69034;49.444;7.758;2023-05-23T18:55:02;23.60;36.60
79571;DHT22;69034;49.444;7.758;2023-05-23T18:59:02;23.40;37.10
79571;DHT22;69034;49.444;7.758;2023-05-23T19:03:03;23.10;37.40
79571;DHT22;69034;49.444;7.758;2023-05-23T19:07:04;22.90;37.60
79571;DHT22;69034;49.444;7.758;2023-05-23T19:11:06;22.70;37.80
79571;DHT22;69034;49.444;7.758;2023-05-23T19:15:09;22.50;38.10
79571;DHT22;69034;49.444;7.758;2023-05-23T19:19:09;22.40;38.90
79571;DHT22;69034;49.444;7.758;2023-05-23T19:23:10;22.30;39.50
79571;DHT22;69034;49.444;7.758;2023-05-23T19:27:11;22.20;39.70
79571;DHT22;69034;49.444;7.758;2023-05-23T19:31:14;22.10;39.70
79571;DHT22;69034;49.444;7.758;2023-05-23T19:35:15;22.00;39.90
79571;DHT22;69034;49.444;7.758;2023-05-23T19:39:16;21.90;40.00
79571;DHT22;69034;49.444;7.758;2023-05-23T19:43:17;21.80;40.20
79571;DHT22;69034;49.444;7.758;2023-05-23T19:47:19;21.60;40.30
79571;DHT22;69034;49.444;7.758;2023-05-23T19:51:20;21.50;40.40
79571;DHT22;69034;49.444;7.758;2023-05-23T19:55:20;21.50;40.40
79571;DHT22;69034;49.444;7.758;2023-05-23T19:59:21;21.40;40.40
79571;DHT22;69034;49.444;7.758;2023-05-23T20:03:22;21.30;40.60
79571;DHT22;69034;49.444;7.758;2023-05-23T20:07:23;21.20;40.80
79571;DHT22;69034;49.444;7.758;2023-05-23T20:11:24;21.20;41.00
79571;DHT22;69034;49.444;7.758;2023-05-23T20:15:26;21.00;40.90
79571;DHT22;69034;49.444;7.758;2023-05-23T20:19:27;20.80;41.10
79571;DHT22;69034;49.444;7.758;2023-05-23T20:23:28;20.50;41.20
79571;DHT22;69034;49.444;7.758;2023-05-23T20:27:29;20.30;41.40
79571;DHT22;69034;49.444;7.758;2023-05-23T20:31:30;20.20;41.50
79571;DHT22;69034;49.444;7.758;2023-05-23T20:35:31;20.00;41.50
79571;DHT22;69034;49.444;7.758;2023-05-23T20:39:31;19.80;41.70
79571;DHT22;69034;49.444;7.758;2023-05-23T20:43:32;19.60;41.80
79571;DHT22;69034;49.444;7.758;2023-05-23T20:47:37;19.50;42.10
79571;DHT22;69034;49.444;7.758;2023-05-23T20:51:40;19.30;42.00
79571;DHT22;69034;49.444;7.758;2023-05-23T20:55:42;19.20;42.20
79571;DHT22;69034;49.444;7.758;2023-05-23T20:59:43;19.10;42.50
79571;DHT22;69034;49.444;7.758;2023-05-23T21:03:43;19.00;42.70
79571;DHT22;69034;49.444;7.758;2023-05-23T21:07:44;18.80;42.90
79571;DHT22;69034;49.444;7.758;2023-05-23T21:11:44;18.70;43.00
79571;DHT22;69034;49.444;7.758;2023-05-23T21:15:45;18.60;43.20
79571;DHT22;69034;49.444;7.758;2023-05-23T21:19:49;18.50;43.30
79571;DHT22;69034;49.444;7.758;2023-05-23T21:23:50;18.40;43.40
79571;DHT22;69034;49.444;7.758;2023-05-23T21:27:51;18.30;43.70
79571;DHT22;69034;49.444;7.758;2023-05-23T21:31:51;18.30;44.00
79571;DHT22;69034;49.444;7.758;2023-05-23T21:35:52;18.40;44.00
79571;DHT22;69034;49.444;7.758;2023-05-23T21:39:53;18.40;44.00
79571;DHT22;69034;49.444;7.758;2023-05-23T21:43:53;18.40;44.20
79571;DHT22;69034;49.444;7.758;2023-05-23T21:47:54;18.40;44.20
79571;DHT22;69034;49.444;7.758;2023-05-23T21:51:55;18.40;44.30
79571;DHT22;69034;49.444;7.758;2023-05-23T21:55:55;18.30;44.40
79571;DHT22;69034;49.444;7.758;2023-05-23T21:59:56;18.30;44.40
79571;DHT22;69034;49.444;7.758;2023-05-23T22:03:57;18.30;44.50
79571;DHT22;69034;49.444;7.758;2023-05-23T22:07:57;18.20;44.60
79571;DHT22;69034;49.444;7.758;2023-05-23T22:11:58;18.20;44.50
79571;DHT22;69034;49.444;7.758;2023-05-23T22:15:59;18.00;44.60
79571;DHT22;69034;49.444;7.758;2023-05-23T22:20:00;17.90;44.60
79571;DHT22;69034;49.444;7.758;2023-05-23T22:24:04;17.80;44.80
79571;DHT22;69034;49.444;7.758;2023-05-23T22:28:05;17.70;44.80
79571;DHT22;69034;49.444;7.758;2023-05-23T22:32:05;17.70;44.80
79571;DHT22;69034;49.444;7.758;2023-05-23T22:36:07;17.60;44.70
79571;DHT22;69034;49.444;7.758;2023-05-23T22:40:09;17.60;44.70
79571;DHT22;69034;49.444;7.758;2023-05-23T22:44:09;17.50;44.70
79571;DHT22;69034;49.444;7.758;2023-05-23T22:48:11;17.50;44.90
79571;DHT22;69034;49.444;7.758;2023-05-23T22:52:12;17.40;45.10
79571;DHT22;69034;49.444;7.758;2023-05-23T22:56:12;17.30;45.10
79571;DHT22;69034;49.444;7.758;2023-05-23T23:00:15;17.20;45.20
79571;DHT22;69034;49.444;7.758;2023-05-23T23:04:15;17.10;45.30
79571;DHT22;69034;49.444;7.758;2023-05-23T23:08:16;17.00;45.50
79571;DHT22;69034;49.444;7.758;2023-05-23T23:12:18;16.90;45.50
79571;DHT22;69034;49.444;7.758;2023-05-23T23:16:19;16.80;45.70
79571;DHT22;69034;49.444;7.758;2023-05-23T23:20:20;16.70;45.90
79571;DHT22;69034;49.444;7.758;2023-05-23T23:24:21;16.60;46.10
79571;DHT22;69034;49.444;7.758;2023-05-23T23:28:22;16.50;46.20
79571;DHT22;69034;49.444;7.758;2023-05-23T23:32:23;16.50;46.30
79571;DHT22;69034;49.444;7.758;2023-05-23T23:36:24;16.40;46.30
79571;DHT22;69034;49.444;7.758;2023-05-23T23:40:25;16.30;46.40
79571;DHT22;69034;49.444;7.758;2023-05-23T23:44:25;16.30;46.60
79571;DHT22;69034;49.444;7.758;2023-05-23T23:48:26;16.30;46.60
79571;DHT22;69034;49.444;7.758;2023-05-23T23:52:27;16.40;46.60
79571;DHT22;69034;49.444;7.758;2023-05-23T23:56:29;16.40;46.60
